ADDS TAF Data INFO
IDs: Format: Raw Decoded Include METARs

Data at: 1608 UTC 19 Nov 2017

KCNM 191553Z AUTO 14007KT 10SM CLR 07/M04 A3036 RMK AO2 SLP274 T00721044

KCNM 191120Z 1912/2012 16008KT P6SM FEW250